This is the latest recevied weather packets stored in our database for station/object KD4WXI. If no packets are shown the sender has not sent any weather packets the latest 10 day(s).
| Time | Temp. | Humidity | Pressure | Rain* | Wind** | Luminosity | Snow |
|---|---|---|---|---|---|---|---|
| 1777498183 | 25° C | 67% | 1008.4 hPa | 0 mm | - | 57 W/m² | - |
| 1777497881 | 25° C | 66% | 1008.2 hPa | 0 mm | - | 71 W/m² | - |
| 1777497577 | 24.44° C | 70% | 1008.5 hPa | 0 mm | - | 93 W/m² | - |
| 1777497273 | 24.44° C | 71% | 1008.6 hPa | 0 mm | - | 128 W/m² | - |
| 1777496970 | 24.44° C | 70% | 1008.6 hPa | 0 mm | - | 92 W/m² | - |
| 1777496667 | 24.44° C | 70% | 1008.4 hPa | 0 mm | - | 82 W/m² | - |
| 1777496363 | 25° C | 69% | 1008.6 hPa | 0 mm | - | 136 W/m² | - |
| 1777496060 | 24.44° C | 70% | 1008.4 hPa | 0 mm | - | 100 W/m² | - |
| 1777495756 | 24.44° C | 71% | 1008.9 hPa | 0 mm | - | 144 W/m² | - |
| 1777495452 | 24.44° C | 71% | 1008.8 hPa | 0 mm | - | 90 W/m² | - |
| 1777495148 | 25° C | 68% | 1008.9 hPa | 0 mm | - | 76 W/m² | - |
| 1777494845 | 25° C | 69% | 1008.4 hPa | 0 mm | - | 95 W/m² | - |
| 1777494543 | 25° C | 66% | 1008.7 hPa | 0 mm | - | 129 W/m² | - |
| 1777494240 | 26.11° C | 64% | 1008.6 hPa | 0 mm | - | 108 W/m² | - |
| 1777493937 | 26.11° C | 62% | 1008.8 hPa | 0 mm | - | 318 W/m² | - |
| 1777493635 | 25.56° C | 64% | 1009 hPa | 0 mm | - | 178 W/m² | - |
| 1777493332 | 25° C | 65% | 1009.1 hPa | 0 mm | - | 523 W/m² | - |
| 1777493028 | 25.56° C | 66% | 1009 hPa | 0 mm | - | 138 W/m² | - |
| 1777492725 | 25.56° C | 66% | 1009.3 hPa | 0 mm | - | 386 W/m² | - |
| 1777492425 | 25.56° C | 63% | 1009.4 hPa | 0 mm | - | 651 W/m² | - |
| 1777492123 | 26.67° C | 64% | 1009.3 hPa | 0 mm | - | 157 W/m² | - |
| 1777491819 | 26.67° C | 62% | 1009.3 hPa | 0 mm | - | 651 W/m² | - |
| 1777491516 | 25.56° C | 64% | 1009.5 hPa | 0 mm | - | 700 W/m² | - |
| 1777491214 | 26.67° C | 66% | 1009.6 hPa | 0 mm | - | 191 W/m² | - |
| 1777490909 | 25.56° C | 65% | 1009.7 hPa | 0 mm | - | 718 W/m² | - |
* Rain latest hour (hover to see other rain measurements)
** Current wind speed in m/s (hover to see current wind gust speed)